createdAt,value
2023-02-14T00:03:27.877Z,9.57
2023-02-14T00:08:30.281Z,9.45
2023-02-14T00:13:31.666Z,9.52
2023-02-14T00:18:51.690Z,8.25
2023-02-14T00:23:53.045Z,9.95
2023-02-14T00:28:54.418Z,9.07
2023-02-14T00:33:55.780Z,11.57
2023-02-14T00:38:57.364Z,10.82
2023-02-14T00:43:59.266Z,9.70
2023-02-14T00:49:00.706Z,9.50
2023-02-14T00:54:03.252Z,9.02
2023-02-14T00:59:04.639Z,7.95
2023-02-14T01:04:07.650Z,8.07
2023-02-14T01:09:09.188Z,9.60
2023-02-14T01:14:10.588Z,9.77
2023-02-14T01:19:11.919Z,10.05
2023-02-14T01:24:13.343Z,9.10
2023-02-14T01:29:14.658Z,7.70
2023-02-14T01:34:16.082Z,8.68
2023-02-14T01:39:18.495Z,8.40
2023-02-14T01:44:25.827Z,7.70
2023-02-14T01:49:31.788Z,9.07
2023-02-14T01:54:36.117Z,8.20
2023-02-14T01:59:43.410Z,9.73
2023-02-14T02:04:46.730Z,7.65
2023-02-14T02:09:55.711Z,10.15
2023-02-14T02:14:59.182Z,9.88
2023-02-14T02:20:37.790Z,10.60
2023-02-14T02:31:39.927Z,12.77
2023-02-14T02:36:51.634Z,12.13
2023-02-14T02:42:05.953Z,10.60
2023-02-14T02:47:27.230Z,10.63
2023-02-14T02:52:58.670Z,10.50
2023-02-14T02:58:00.431Z,9.85
2023-02-14T03:03:20.480Z,11.55
2023-02-14T03:08:21.799Z,10.63
2023-02-14T03:13:44.427Z,9.52
2023-02-14T03:18:57.213Z,10.63
2023-02-14T03:24:09.617Z,10.27
2023-02-14T03:29:48.507Z,11.20
2023-02-14T03:35:34.278Z,11.20
2023-02-14T03:41:02.638Z,10.88
2023-02-14T03:51:12.045Z,9.90
2023-02-14T03:56:26.701Z,10.27
2023-02-14T04:01:36.564Z,11.48
2023-02-14T04:06:38.068Z,11.88
2023-02-14T04:11:39.782Z,10.98
2023-02-14T04:16:59.885Z,11.88
2023-02-14T04:22:01.251Z,11.25
2023-02-14T04:27:11.544Z,11.88
2023-02-14T04:32:16.283Z,11.02
2023-02-14T04:37:19.820Z,12.35
2023-02-14T04:42:21.209Z,12.38
2023-02-14T04:47:22.620Z,11.95
2023-02-14T04:52:24.033Z,11.13
2023-02-14T04:57:25.433Z,13.23
2023-02-14T05:02:26.891Z,13.25
2023-02-14T05:07:28.419Z,12.68
2023-02-14T05:12:29.881Z,14.50
2023-02-14T05:17:31.312Z,14.15
2023-02-14T05:22:32.695Z,14.40
2023-02-14T05:27:34.078Z,12.82
2023-02-14T05:32:35.470Z,14.38
2023-02-14T05:37:36.821Z,14.48
2023-02-14T05:42:38.183Z,14.13
2023-02-14T05:47:39.685Z,15.50
2023-02-14T05:52:41.569Z,16.50
2023-02-14T05:57:42.969Z,15.73
2023-02-14T06:02:44.395Z,17.35
2023-02-14T06:07:50.466Z,20.80
2023-02-14T06:12:53.151Z,17.35
2023-02-14T06:17:56.178Z,17.33
2023-02-14T06:22:57.591Z,23.67
2023-02-14T06:27:59.323Z,18.65
2023-02-14T06:33:00.760Z,17.10
2023-02-14T06:38:02.115Z,20.23
2023-02-14T06:43:03.572Z,18.15
2023-02-14T06:48:05.082Z,18.80
2023-02-14T06:53:06.487Z,19.60
2023-02-14T06:58:07.908Z,18.70
2023-02-14T07:03:09.708Z,16.50
2023-02-14T07:08:11.255Z,18.45
2023-02-14T07:13:12.931Z,18.73
2023-02-14T07:18:14.269Z,15.43
2023-02-14T07:23:15.674Z,16.48
2023-02-14T07:28:17.056Z,16.73
2023-02-14T07:33:18.529Z,15.48
2023-02-14T07:38:19.998Z,14.50
2023-02-14T07:43:21.398Z,14.32
2023-02-14T07:48:22.828Z,11.00
2023-02-14T07:53:24.995Z,11.40
2023-02-14T07:58:26.490Z,11.27
2023-02-14T08:03:27.839Z,11.90
2023-02-14T08:08:31.825Z,11.57
2023-02-14T08:13:33.475Z,12.63
2023-02-14T08:18:37.917Z,12.30
2023-02-14T08:23:39.317Z,11.90
2023-02-14T08:28:40.729Z,13.15
2023-02-14T08:33:44.156Z,12.35
2023-02-14T08:38:47.872Z,12.73
2023-02-14T08:43:50.009Z,10.82
2023-02-14T08:48:53.291Z,13.65
2023-02-14T08:53:55.865Z,12.15
2023-02-14T08:58:57.226Z,10.68
2023-02-14T09:03:58.815Z,11.93
2023-02-14T09:09:02.466Z,11.45
2023-02-14T09:14:04.037Z,11.20
2023-02-14T09:19:05.662Z,12.10
2023-02-14T09:24:07.020Z,11.77
2023-02-14T09:29:08.369Z,12.65
2023-02-14T09:34:09.727Z,11.93
2023-02-14T09:39:11.142Z,13.10
2023-02-14T09:44:29.200Z,10.57
2023-02-14T09:49:35.976Z,10.23
2023-02-14T09:54:37.568Z,10.63
2023-02-14T10:00:13.376Z,11.80
2023-02-14T10:05:28.898Z,12.48
2023-02-14T10:11:06.960Z,10.25
2023-02-14T10:16:27.436Z,11.15
2023-02-14T10:21:42.992Z,10.63
2023-02-14T10:26:48.189Z,10.55
2023-02-14T10:31:55.724Z,11.85
2023-02-14T11:30:57.490Z,14.05
2023-02-14T11:35:59.752Z,12.52
2023-02-14T11:41:02.347Z,13.18
2023-02-14T11:46:15.034Z,13.18
2023-02-14T12:01:52.996Z,21.77
2023-02-14T12:06:54.734Z,16.55
2023-02-14T12:12:14.787Z,15.60
2023-02-14T12:17:29.666Z,14.95
2023-02-14T12:22:37.119Z,15.82
2023-02-14T12:27:48.974Z,15.68
2023-02-14T12:32:52.812Z,16.27
2023-02-14T12:38:03.810Z,15.82
2023-02-14T12:43:16.099Z,15.48
2023-02-14T12:48:42.073Z,16.33
2023-02-14T12:53:58.222Z,15.02
2023-02-14T12:59:28.385Z,14.75
2023-02-14T13:04:53.106Z,14.27
2023-02-14T13:10:04.477Z,14.55
2023-02-14T13:15:18.977Z,13.48
2023-02-14T13:20:44.431Z,15.05
2023-02-14T13:25:52.484Z,14.95
2023-02-14T13:30:55.758Z,12.77
2023-02-14T13:36:02.100Z,13.88
2023-02-14T13:41:05.368Z,11.90
2023-02-14T13:46:06.872Z,12.93
2023-02-14T13:51:10.408Z,13.85
2023-02-14T13:56:11.691Z,14.68
2023-02-14T14:01:33.285Z,14.50
2023-02-14T14:07:02.702Z,13.90
2023-02-14T14:12:04.127Z,14.10
2023-02-14T14:17:19.508Z,15.32
2023-02-14T14:22:22.208Z,15.07
2023-02-14T14:27:44.430Z,14.20
2023-02-14T14:32:46.460Z,15.80
2023-02-14T14:37:57.075Z,14.35
2023-02-14T14:43:32.574Z,13.70
2023-02-14T14:48:45.395Z,16.50
2023-02-14T14:53:54.584Z,14.25
2023-02-14T14:58:56.281Z,14.13
2023-02-14T15:04:18.253Z,14.32
2023-02-14T15:09:24.105Z,16.08
2023-02-14T15:14:28.841Z,14.70
2023-02-14T15:19:38.826Z,15.23
2023-02-14T15:24:40.245Z,13.77
2023-02-14T15:29:41.662Z,16.48
2023-02-14T15:34:43.422Z,17.48
2023-02-14T15:39:49.299Z,17.75
2023-02-14T15:44:50.704Z,16.02
2023-02-14T15:49:52.062Z,16.55
2023-02-14T15:54:53.712Z,18.42
2023-02-14T15:59:55.325Z,18.42
2023-02-14T16:05:04.117Z,17.80
2023-02-14T16:10:25.714Z,18.50
2023-02-14T16:15:32.492Z,20.63
2023-02-14T16:20:46.841Z,18.03
2023-02-14T16:25:48.894Z,19.92
2023-02-14T16:30:55.974Z,19.20
2023-02-14T16:36:06.209Z,21.35
2023-02-14T16:41:15.032Z,20.45
2023-02-14T16:46:20.628Z,21.08
2023-02-14T16:51:27.183Z,23.33
2023-02-14T16:56:40.900Z,23.70
2023-02-14T17:01:42.392Z,21.85
2023-02-14T17:06:49.415Z,21.42
2023-02-14T17:11:52.657Z,23.02
2023-02-14T17:16:57.069Z,22.65
2023-02-14T17:21:59.812Z,21.27
2023-02-14T17:27:01.137Z,21.00
2023-02-14T17:32:02.921Z,21.48
2023-02-14T17:37:04.297Z,22.63
2023-02-14T17:42:05.850Z,22.63
2023-02-14T17:47:07.190Z,29.55
2023-02-14T17:52:08.508Z,25.83
2023-02-14T17:57:10.332Z,26.58
2023-02-14T18:02:11.837Z,27.13
2023-02-14T18:07:13.169Z,22.85
2023-02-14T18:12:15.162Z,24.80
2023-02-14T18:17:16.668Z,26.95
2023-02-14T18:22:18.048Z,25.90
2023-02-14T18:27:19.425Z,26.77
2023-02-14T18:32:20.762Z,31.40
2023-02-14T18:37:22.191Z,30.25
2023-02-14T18:42:23.748Z,30.60
2023-02-14T18:47:25.138Z,29.38
2023-02-14T18:52:26.540Z,28.40
2023-02-14T18:57:27.862Z,26.30
2023-02-14T19:02:29.257Z,23.90
2023-02-14T19:07:30.978Z,21.95
2023-02-14T19:12:33.572Z,21.95
2023-02-14T19:17:35.225Z,25.67
2023-02-14T19:22:38.361Z,26.20
2023-02-14T19:27:39.801Z,25.40
2023-02-14T19:32:41.174Z,27.15
2023-02-14T19:37:42.496Z,25.25
2023-02-14T19:42:43.831Z,24.63
2023-02-14T19:47:47.338Z,19.83
2023-02-14T19:52:49.163Z,17.38
2023-02-14T19:57:50.614Z,18.58
2023-02-14T20:02:52.050Z,18.23
2023-02-14T20:07:56.405Z,19.63
2023-02-14T20:12:57.971Z,18.75
2023-02-14T20:17:59.624Z,20.17
2023-02-14T20:23:00.989Z,18.90
2023-02-14T20:28:02.531Z,19.50
2023-02-14T20:33:04.564Z,18.60
2023-02-14T20:38:09.523Z,17.95
2023-02-14T20:43:11.206Z,20.35
2023-02-14T20:48:12.828Z,18.80
2023-02-14T20:53:14.277Z,20.50
2023-02-14T20:58:15.662Z,20.48
2023-02-14T21:03:17.180Z,20.42
2023-02-14T21:08:18.612Z,21.10
2023-02-14T21:13:20.196Z,20.15
2023-02-14T21:18:21.763Z,20.15
2023-02-14T21:23:23.131Z,19.50
2023-02-14T21:28:24.737Z,20.80
2023-02-14T21:33:26.070Z,19.90
2023-02-14T21:38:27.793Z,19.10
2023-02-14T21:43:29.215Z,20.13
2023-02-14T21:48:54.259Z,19.55
2023-02-14T21:53:56.546Z,18.40
2023-02-14T21:58:57.898Z,19.05
2023-02-14T22:04:00.410Z,20.27
2023-02-14T22:09:01.769Z,18.52
2023-02-14T22:14:03.600Z,20.50
2023-02-14T22:19:07.184Z,18.20
2023-02-14T22:24:08.539Z,19.58
2023-02-14T22:29:11.836Z,18.23
2023-02-14T22:34:17.525Z,17.52
2023-02-14T22:39:18.879Z,16.42
2023-02-14T22:44:20.285Z,16.50
2023-02-14T22:49:21.622Z,17.80
2023-02-14T22:54:23.135Z,16.38
2023-02-14T22:59:25.740Z,17.98
2023-02-14T23:04:29.638Z,15.80
2023-02-14T23:09:31.018Z,16.55
2023-02-14T23:14:51.306Z,17.35
2023-02-14T23:20:11.086Z,17.88
2023-02-14T23:25:12.461Z,18.92
2023-02-14T23:30:16.634Z,18.77
2023-02-14T23:35:18.126Z,15.90
2023-02-14T23:40:20.313Z,15.35
2023-02-14T23:45:36.772Z,15.27
2023-02-14T23:50:38.311Z,15.23
2023-02-14T23:55:39.615Z,13.82
